Terminal Aerodrome Forecast
Issued by NWS

Home | Current Version | Previous Version | Text Only | Print | Product List | Glossary On
Versions: 1 2 3 4 5 6 7 8 9 10 11 12 13 14 15 16 17 18 19 20
000
FTUS44 KHGX 210808 AAA
TAFCXO
TAF AMD
KCXO 210808Z 2108/2206 13003KT P6SM FEW035 SCT045
     FM211000 13002KT 6SM BR SCT020 BKN040
     FM211600 17006KT P6SM SCT025 BKN050
     FM220000 01005KT P6SM SCT025 BKN050=

USA.gov is the U.S. government's official web portal to all federal, state and local government web resources and services.